METAR Data
IDs: Format: Raw Decoded Include TAF

Data at: 0211 UTC 29 Nov 2020

METAR for:KSDA (Shenandoah Muni, IA, US)
Text:KSDA 290155Z AUTO 00000KT 10SM CLR 05/M00 A3002 RMK AO2
Temperature: 5.0°C ( 41°F)
Dewpoint: 0.0°C ( 32°F) [RH = 70%]
Pressure (altimeter):30.02 inches Hg (1016.7 mb)
Winds:calm
Visibility:10 or more sm (16+ km)
Ceiling:at least 12,000 feet AGL
Clouds:sky clear below 12,000 feet AGL
QC Flag:automated observation with no human augmentation